Time;durP1;ratioP1;P1;durP2;ratioP2;P2;SDS_P1;SDS_P2;PMS_P1;PMS_P2;Temp;Humidity;BMP_temperature;BMP_pressure;BME280_temperature;BME280_humidity;BME280_pressure;Samples;Min_cycle;Max_cycle;Signal;HPM_P1;HPM_P2
2021/09/09 00:01:59;;;;;;;5.75;4.20;;;14.20;86.30;;;;;;4939055;28;20122;-67
2021/09/09 00:04:25;;;;;;;6.05;4.18;;;14.20;86.00;;;;;;4962752;28;20150;-68
2021/09/09 00:06:50;;;;;;;4.57;3.55;;;14.10;87.00;;;;;;4945130;28;20546;-68
2021/09/09 00:09:17;;;;;;;5.20;4.25;;;14.10;86.30;;;;;;4951236;28;20531;-68
2021/09/09 00:11:49;;;;;;;4.03;3.63;;;14.10;86.00;;;;;;4957724;28;20034;-68
2021/09/09 00:14:15;;;;;;;4.55;3.85;;;14.00;84.90;;;;;;4939353;28;20039;-70
2021/09/09 00:16:41;;;;;;;5.35;3.92;;;14.00;84.90;;;;;;4941132;28;20039;-68
2021/09/09 00:19:07;;;;;;;4.38;3.97;;;13.90;85.10;;;;;;4942874;28;20031;-68
2021/09/09 00:21:32;;;;;;;5.80;4.60;;;14.00;85.50;;;;;;4946683;28;20081;-68
2021/09/09 00:23:58;;;;;;;8.07;5.40;;;13.90;87.30;;;;;;4945613;28;20081;-68
2021/09/09 00:26:24;;;;;;;7.43;5.35;;;14.00;87.30;;;;;;4945973;28;20484;-68
2021/09/09 00:28:49;;;;;;;6.80;5.25;;;14.00;87.30;;;;;;4955090;28;20644;-68
2021/09/09 00:31:15;;;;;;;7.50;5.13;;;14.00;87.30;;;;;;4946518;28;20118;-68
2021/09/09 00:33:44;;;;;;;8.00;4.43;;;14.00;87.30;;;;;;4951240;28;20035;-68
2021/09/09 00:36:10;;;;;;;8.95;5.05;;;14.00;86.70;;;;;;4945735;28;20020;-68
2021/09/09 00:38:35;;;;;;;7.05;5.20;;;14.00;87.10;;;;;;4944232;28;20039;-68
2021/09/09 00:41:01;;;;;;;9.00;5.30;;;13.90;87.40;;;;;;4947161;28;20910;-68
2021/09/09 00:43:26;;;;;;;7.35;5.05;;;13.90;87.20;;;;;;4950876;28;20693;-68
2021/09/09 00:45:54;;;;;;;7.55;5.55;;;13.80;88.30;;;;;;4941900;28;20063;-68
2021/09/09 00:48:21;;;;;;;6.80;4.90;;;13.80;89.50;;;;;;4939461;28;20023;-68
2021/09/09 00:50:47;;;;;;;7.18;5.25;;;13.80;88.60;;;;;;4953819;28;20480;-68
2021/09/09 00:53:13;;;;;;;6.85;5.10;;;13.80;88.50;;;;;;4945707;28;20054;-69
2021/09/09 00:55:39;;;;;;;5.72;4.45;;;13.90;88.50;;;;;;4945685;28;20039;-68
2021/09/09 00:58:09;;;;;;;5.93;4.50;;;13.80;87.70;;;;;;4948062;28;20053;-68
2021/09/09 01:00:39;;;;;;;4.32;3.47;;;13.80;87.20;;;;;;4948699;28;20039;-68
2021/09/09 01:03:08;;;;;;;13.43;4.13;;;13.70;86.90;;;;;;4954334;28;20063;-68
2021/09/09 01:05:34;;;;;;;4.35;3.92;;;13.70;87.30;;;;;;4951401;28;20063;-68
2021/09/09 01:08:00;;;;;;;3.55;3.22;;;13.60;87.20;;;;;;4969005;28;20043;-68
2021/09/09 01:10:26;;;;;;;4.15;3.50;;;13.60;86.80;;;;;;4966393;28;20417;-68
2021/09/09 01:12:51;;;;;;;4.07;3.67;;;13.50;87.00;;;;;;4954086;28;20512;-68
2021/09/09 01:15:17;;;;;;;3.85;3.55;;;13.50;87.40;;;;;;4943856;28;20023;-68
2021/09/09 01:17:43;;;;;;;4.25;3.85;;;13.50;87.40;;;;;;4949243;28;20110;-68
2021/09/09 01:20:09;;;;;;;6.45;4.40;;;13.40;88.70;;;;;;4955601;28;20066;-68
2021/09/09 01:22:35;;;;;;;6.63;5.00;;;13.30;89.10;;;;;;4945410;28;20047;-68
2021/09/09 01:25:01;;;;;;;7.20;5.07;;;13.40;89.30;;;;;;4944259;28;20082;-68
2021/09/09 01:27:26;;;;;;;7.50;4.65;;;13.30;90.20;;;;;;4947066;28;20110;-68
2021/09/09 01:29:52;;;;;;;5.72;4.72;;;13.30;90.30;;;;;;4952309;28;20035;-68
2021/09/09 01:32:18;;;;;;;7.22;4.68;;;13.30;90.00;;;;;;4945696;28;20662;-67
2021/09/09 01:34:44;;;;;;;4.90;4.40;;;13.30;90.00;;;;;;4951010;28;20031;-68
2021/09/09 01:37:11;;;;;;;6.28;4.30;;;13.40;89.60;;;;;;4946859;28;20023;-68
2021/09/09 01:39:40;;;;;;;6.82;4.13;;;13.40;88.30;;;;;;4949287;29;20038;-68
2021/09/09 01:42:06;;;;;;;5.28;3.63;;;13.30;86.60;;;;;;4951995;28;20083;-68
2021/09/09 01:44:32;;;;;;;4.57;3.45;;;13.10;86.10;;;;;;4954424;29;20039;-68
2021/09/09 01:46:58;;;;;;;4.85;3.58;;;13.10;87.20;;;;;;4949139;28;20034;-68
2021/09/09 01:49:24;;;;;;;4.07;3.67;;;13.10;87.10;;;;;;4952627;28;20026;-68
2021/09/09 01:51:50;;;;;;;3.22;2.92;;;13.10;87.70;;;;;;4943872;28;22243;-68
2021/09/09 01:54:16;;;;;;;3.83;3.42;;;13.10;88.00;;;;;;4950533;28;20059;-68
2021/09/09 01:56:42;;;;;;;4.88;3.55;;;13.10;88.00;;;;;;4945931;28;20042;-68
2021/09/09 01:59:08;;;;;;;5.60;4.68;;;13.10;88.40;;;;;;4952343;28;20062;-68
2021/09/09 02:01:33;;;;;;;5.68;4.32;;;13.00;89.70;;;;;;4944685;28;20067;-68
2021/09/09 02:04:01;;;;;;;6.75;5.20;;;13.10;89.40;;;;;;4945152;28;20027;-67
2021/09/09 02:06:26;;;;;;;4.55;3.78;;;12.90;90.70;;;;;;4949329;28;20034;-68
2021/09/09 02:08:52;;;;;;;5.97;4.15;;;13.00;89.20;;;;;;4958949;28;20405;-67
2021/09/09 02:11:18;;;;;;;5.20;4.20;;;12.90;88.80;;;;;;4949500;28;20054;-68
2021/09/09 02:13:43;;;;;;;8.13;4.57;;;12.90;88.80;;;;;;4946765;28;20039;-68
2021/09/09 02:16:09;;;;;;;4.40;3.70;;;12.80;88.30;;;;;;4951387;28;20085;-68
2021/09/09 02:18:35;;;;;;;4.55;3.50;;;12.80;88.10;;;;;;4942393;28;20123;-68
2021/09/09 02:21:01;;;;;;;4.13;3.72;;;12.80;87.40;;;;;;4949045;28;20069;-68
2021/09/09 02:23:26;;;;;;;3.97;3.58;;;12.70;87.20;;;;;;4943121;28;20075;-68
2021/09/09 02:25:53;;;;;;;5.03;3.10;;;12.60;87.60;;;;;;4952668;28;20500;-68
2021/09/09 02:28:18;;;;;;;3.85;3.30;;;12.50;88.00;;;;;;4948084;28;20519;-68
2021/09/09 02:30:44;;;;;;;3.42;3.13;;;12.50;88.80;;;;;;4949517;28;20055;-68
2021/09/09 02:33:10;;;;;;;4.18;3.67;;;12.50;88.60;;;;;;4945780;28;20046;-68
2021/09/09 02:35:36;;;;;;;4.50;4.10;;;12.50;88.60;;;;;;4958236;28;20031;-68
2021/09/09 02:38:02;;;;;;;5.70;4.10;;;12.50;89.30;;;;;;4938118;28;21671;-68
2021/09/09 02:40:28;;;;;;;5.60;4.00;;;12.50;89.20;;;;;;4947209;28;20090;-68
2021/09/09 02:42:53;;;;;;;5.20;4.07;;;12.60;89.30;;;;;;4959093;28;20028;-68
2021/09/09 02:45:19;;;;;;;6.63;4.80;;;12.60;89.00;;;;;;4951640;28;20039;-67
2021/09/09 02:47:45;;;;;;;6.75;4.68;;;12.60;88.80;;;;;;4944400;28;20086;-68
2021/09/09 02:50:11;;;;;;;6.05;4.68;;;12.60;88.80;;;;;;4942520;28;20453;-68
2021/09/09 02:52:37;;;;;;;7.38;4.32;;;12.60;89.40;;;;;;4952032;28;20118;-68
2021/09/09 02:55:03;;;;;;;5.32;4.28;;;12.60;89.60;;;;;;4952098;28;20114;-68
2021/09/09 02:57:29;;;;;;;5.22;4.35;;;12.60;89.80;;;;;;4944414;28;20027;-68
2021/09/09 02:59:55;;;;;;;6.32;4.38;;;12.50;89.80;;;;;;4938537;28;20546;-69
2021/09/09 03:02:20;;;;;;;5.93;4.18;;;12.50;90.10;;;;;;4933455;28;22323;-68
2021/09/09 03:04:46;;;;;;;5.10;4.60;;;12.40;90.30;;;;;;4949921;28;20036;-68
2021/09/09 03:07:11;;;;;;;4.45;3.78;;;12.40;90.30;;;;;;4943398;28;20242;-70
2021/09/09 03:09:37;;;;;;;5.93;4.32;;;12.40;90.40;;;;;;4942476;28;20066;-67
2021/09/09 03:12:03;;;;;;;5.45;4.50;;;12.40;90.60;;;;;;4946087;29;20114;-68
2021/09/09 03:14:29;;;;;;;6.47;4.72;;;12.40;90.70;;;;;;4943120;28;20114;-68
2021/09/09 03:16:55;;;;;;;6.55;5.45;;;12.40;90.90;;;;;;4940185;28;20062;-68
2021/09/09 03:19:20;;;;;;;7.50;5.45;;;12.40;91.00;;;;;;4947400;28;20110;-68
2021/09/09 03:21:46;;;;;;;8.48;5.68;;;12.40;91.00;;;;;;4953129;28;20035;-68
2021/09/09 03:24:13;;;;;;;6.78;5.35;;;12.40;91.20;;;;;;4958359;28;20054;-68
2021/09/09 03:26:38;;;;;;;8.00;5.68;;;12.40;91.20;;;;;;4941305;28;21649;-68
2021/09/09 03:29:04;;;;;;;10.35;5.28;;;12.40;91.20;;;;;;4946344;28;20024;-68
2021/09/09 03:31:30;;;;;;;10.57;5.75;;;12.40;91.50;;;;;;4944000;28;20045;-67
2021/09/09 03:33:55;;;;;;;7.32;5.65;;;12.50;91.80;;;;;;4949105;28;20392;-67
2021/09/09 03:36:21;;;;;;;9.30;5.80;;;12.50;92.00;;;;;;4965273;28;20035;-68
2021/09/09 03:38:47;;;;;;;10.02;6.40;;;12.50;91.90;;;;;;4948094;28;20046;-67
2021/09/09 03:41:13;;;;;;;8.35;5.63;;;12.50;91.90;;;;;;4945793;28;20657;-67
2021/09/09 03:43:38;;;;;;;8.93;6.43;;;12.50;91.90;;;;;;4951340;28;20102;-68
2021/09/09 03:46:04;;;;;;;7.25;5.45;;;12.50;91.60;;;;;;4937658;28;20070;-69
2021/09/09 03:48:29;;;;;;;6.75;5.45;;;12.50;91.10;;;;;;4942535;29;20042;-68
2021/09/09 03:50:55;;;;;;;7.45;5.47;;;12.50;91.10;;;;;;4950069;29;20031;-68
2021/09/09 03:53:21;;;;;;;9.43;6.00;;;12.50;91.60;;;;;;4970034;28;20023;-68
2021/09/09 03:55:47;;;;;;;8.48;5.95;;;12.50;91.60;;;;;;4951514;28;20628;-68
2021/09/09 03:58:12;;;;;;;7.30;5.60;;;12.50;91.90;;;;;;4960084;28;20508;-68
2021/09/09 04:00:38;;;;;;;7.40;5.65;;;12.50;91.80;;;;;;4944022;28;20035;-68
2021/09/09 04:03:04;;;;;;;6.60;5.28;;;12.50;91.70;;;;;;4948337;28;20076;-69
2021/09/09 04:05:32;;;;;;;7.25;5.43;;;12.50;91.40;;;;;;4947852;28;20897;-68
2021/09/09 04:07:58;;;;;;;6.40;5.05;;;12.50;91.50;;;;;;4947698;28;20039;-68
2021/09/09 04:10:24;;;;;;;8.30;4.60;;;12.50;90.80;;;;;;4966923;28;20074;-68
2021/09/09 04:12:50;;;;;;;6.20;4.78;;;12.40;90.30;;;;;;4958347;28;20023;-68
2021/09/09 04:15:16;;;;;;;8.80;5.65;;;12.40;90.40;;;;;;4945136;28;20050;-68
2021/09/09 04:17:41;;;;;;;9.43;6.07;;;12.40;91.20;;;;;;4944472;28;20043;-68
2021/09/09 04:20:08;;;;;;;6.03;4.97;;;12.50;90.70;;;;;;4944887;28;20027;-68
2021/09/09 04:22:34;;;;;;;5.22;4.00;;;12.50;90.30;;;;;;4946378;28;20035;-68
2021/09/09 04:25:02;;;;;;;3.90;3.50;;;12.30;89.10;;;;;;4941180;28;20165;-68
2021/09/09 04:27:30;;;;;;;3.85;3.15;;;12.20;89.00;;;;;;4944750;28;20019;-68
2021/09/09 04:29:57;;;;;;;5.80;3.10;;;12.20;89.00;;;;;;4956566;28;20027;-68
2021/09/09 04:32:23;;;;;;;4.43;3.30;;;12.10;89.20;;;;;;4948243;28;20023;-68
2021/09/09 04:34:49;;;;;;;3.17;2.85;;;12.10;89.20;;;;;;4952250;28;20077;-67
2021/09/09 04:37:14;;;;;;;2.75;2.55;;;12.10;89.00;;;;;;4960927;28;20028;-67
2021/09/09 04:39:40;;;;;;;2.90;2.70;;;12.00;89.30;;;;;;4959235;28;20027;-68
2021/09/09 04:42:06;;;;;;;3.40;3.10;;;12.00;89.50;;;;;;4971408;28;20393;-68
2021/09/09 04:44:31;;;;;;;3.15;2.85;;;12.00;89.90;;;;;;4956281;28;20704;-68
2021/09/09 04:46:57;;;;;;;4.15;3.50;;;12.00;89.90;;;;;;4950845;28;20031;-69
2021/09/09 04:49:23;;;;;;;4.85;3.25;;;12.00;90.40;;;;;;4949509;28;20077;-68
2021/09/09 04:51:49;;;;;;;5.53;3.88;;;12.10;90.20;;;;;;4964796;28;20027;-68
2021/09/09 04:54:14;;;;;;;4.50;3.90;;;12.10;90.30;;;;;;4954162;28;20038;-67
2021/09/09 04:56:40;;;;;;;5.93;3.85;;;12.20;90.50;;;;;;4943808;28;20046;-68
2021/09/09 04:59:05;;;;;;;4.75;3.70;;;12.20;90.30;;;;;;4951964;29;20027;-69
2021/09/09 05:01:31;;;;;;;6.57;4.03;;;12.20;90.70;;;;;;4946722;28;20102;-68
2021/09/09 05:03:57;;;;;;;5.13;3.78;;;12.20;90.90;;;;;;4946823;28;20034;-68
2021/09/09 05:06:22;;;;;;;5.20;3.75;;;12.20;90.80;;;;;;4949294;28;20106;-67
2021/09/09 05:08:48;;;;;;;3.90;3.30;;;12.30;90.60;;;;;;4956669;28;20032;-68
2021/09/09 05:11:16;;;;;;;3.90;3.08;;;12.30;90.60;;;;;;4939963;28;20042;-68
2021/09/09 05:13:42;;;;;;;;;;;12.30;90.60;;;;;;4938533;28;20031;-68
2021/09/09 05:16:08;;;;;;;3.58;3.28;;;12.30;90.60;;;;;;4947721;28;19911;-68
2021/09/09 05:18:34;;;;;;;3.60;3.30;;;12.20;90.50;;;;;;4944797;28;20086;-68
2021/09/09 05:20:59;;;;;;;3.60;3.30;;;12.20;90.50;;;;;;4945266;28;20098;-69
2021/09/09 05:23:25;;;;;;;3.33;3.03;;;12.20;90.70;;;;;;4942661;28;20043;-68
2021/09/09 05:25:51;;;;;;;3.78;3.38;;;12.20;90.80;;;;;;4944222;28;20023;-68
2021/09/09 05:28:17;;;;;;;4.95;4.30;;;12.20;91.00;;;;;;4947812;28;20038;-68
2021/09/09 05:30:43;;;;;;;4.18;3.47;;;12.30;90.70;;;;;;4948364;28;20035;-68
2021/09/09 05:33:08;;;;;;;4.88;4.28;;;12.30;91.00;;;;;;4952896;28;20037;-68
2021/09/09 05:35:34;;;;;;;4.80;3.78;;;12.30;91.00;;;;;;4949582;28;20042;-68
2021/09/09 05:38:00;;;;;;;6.15;3.97;;;12.30;91.10;;;;;;4950790;28;20129;-68
2021/09/09 05:40:26;;;;;;;5.32;3.65;;;12.40;91.10;;;;;;4943823;28;20114;-69
2021/09/09 05:42:53;;;;;;;7.55;4.05;;;12.50;91.40;;;;;;4953027;28;20135;-68
2021/09/09 05:45:18;;;;;;;4.55;3.90;;;12.50;91.20;;;;;;4949044;28;20380;-68
2021/09/09 05:47:44;;;;;;;4.50;3.97;;;12.50;91.60;;;;;;4944661;28;20102;-68
2021/09/09 05:50:10;;;;;;;5.50;4.32;;;12.50;91.40;;;;;;4938276;28;20061;-68
2021/09/09 05:52:36;;;;;;;4.85;4.18;;;12.60;91.30;;;;;;4933982;28;20023;-68
2021/09/09 05:55:02;;;;;;;4.72;4.10;;;12.60;91.30;;;;;;4938205;29;20480;-69
2021/09/09 05:57:27;;;;;;;6.20;4.45;;;12.60;91.30;;;;;;4947157;28;20027;-68
2021/09/09 05:59:53;;;;;;;6.93;5.28;;;12.70;92.00;;;;;;4954826;28;20019;-68
2021/09/09 06:02:19;;;;;;;7.30;5.28;;;12.70;91.80;;;;;;4947673;28;20067;-68
2021/09/09 06:04:47;;;;;;;7.43;5.78;;;12.80;92.30;;;;;;4954135;28;20038;-68
2021/09/09 06:07:13;;;;;;;9.10;6.17;;;12.80;92.20;;;;;;4947412;28;20759;-68
2021/09/09 06:09:39;;;;;;;7.82;5.68;;;12.90;92.30;;;;;;4948232;28;20287;-68
2021/09/09 06:12:05;;;;;;;10.77;6.65;;;13.00;92.10;;;;;;4950180;28;20421;-68
2021/09/09 06:14:31;;;;;;;9.13;6.07;;;13.00;92.30;;;;;;4952682;28;20102;-68
2021/09/09 06:16:57;;;;;;;9.48;6.05;;;13.10;92.40;;;;;;4947724;28;20039;-68
2021/09/09 06:19:23;;;;;;;13.77;6.72;;;13.10;91.90;;;;;;4953432;28;20475;-68
2021/09/09 06:21:48;;;;;;;8.30;5.90;;;13.20;91.80;;;;;;4950810;28;20038;-68
2021/09/09 06:24:14;;;;;;;10.40;6.10;;;13.30;92.70;;;;;;4960987;28;20066;-69
2021/09/09 06:26:40;;;;;;;10.32;6.65;;;13.40;93.10;;;;;;4950905;28;20054;-68
2021/09/09 06:29:06;;;;;;;8.30;5.93;;;13.50;92.60;;;;;;4951024;28;20473;-70
2021/09/09 06:31:31;;;;;;;9.02;6.43;;;13.50;93.00;;;;;;4944010;28;21033;-68
2021/09/09 06:33:57;;;;;;;10.55;6.85;;;13.60;93.40;;;;;;4947490;28;20027;-69
2021/09/09 06:36:23;;;;;;;10.82;6.47;;;13.60;93.40;;;;;;4953820;28;20035;-69
2021/09/09 06:38:48;;;;;;;10.32;6.60;;;13.70;92.40;;;;;;4953108;28;20102;-69
2021/09/09 06:41:14;;;;;;;10.23;7.05;;;13.80;92.80;;;;;;4966901;28;20046;-69
2021/09/09 06:43:40;;;;;;;8.40;5.53;;;13.90;92.90;;;;;;4939670;29;20113;-68
2021/09/09 06:46:05;;;;;;;8.00;5.43;;;13.90;92.70;;;;;;4949533;28;20053;-69
2021/09/09 06:48:31;;;;;;;10.38;6.20;;;14.00;92.50;;;;;;4947495;29;20031;-68
2021/09/09 06:50:57;;;;;;;10.25;6.93;;;14.10;92.80;;;;;;4947001;28;20031;-68
2021/09/09 06:53:22;;;;;;;8.23;5.95;;;14.20;92.50;;;;;;4966404;28;20075;-68
2021/09/09 06:55:48;;;;;;;8.50;6.00;;;14.30;92.70;;;;;;4950881;28;20034;-68
2021/09/09 06:58:14;;;;;;;8.52;6.32;;;14.40;93.10;;;;;;4946273;28;20523;-68
2021/09/09 07:00:39;;;;;;;9.57;6.47;;;14.50;93.40;;;;;;4953036;28;20491;-68
2021/09/09 07:03:05;;;;;;;9.98;6.40;;;14.70;94.00;;;;;;4953768;28;20391;-68
2021/09/09 07:05:31;;;;;;;10.40;6.88;;;14.80;93.90;;;;;;4946627;28;20027;-68
2021/09/09 07:07:56;;;;;;;8.75;6.30;;;14.80;94.20;;;;;;4945715;29;20023;-68
2021/09/09 07:10:24;;;;;;;9.82;6.80;;;15.00;94.00;;;;;;4968760;28;20020;-68
2021/09/09 07:12:50;;;;;;;8.70;5.85;;;15.10;93.70;;;;;;4947065;28;20031;-68
2021/09/09 07:15:16;;;;;;;9.82;7.22;;;15.20;92.90;;;;;;4953348;28;20031;-68
2021/09/09 07:17:41;;;;;;;8.55;6.20;;;15.40;92.90;;;;;;4948397;28;20392;-68
2021/09/09 07:20:07;;;;;;;9.68;6.53;;;15.50;92.10;;;;;;4962294;28;20035;-69
2021/09/09 07:22:33;;;;;;;8.55;6.43;;;15.70;92.60;;;;;;4951869;28;20109;-68
2021/09/09 07:24:59;;;;;;;9.25;6.85;;;15.80;92.00;;;;;;4961768;28;20030;-69
2021/09/09 07:27:25;;;;;;;10.27;6.63;;;16.00;91.40;;;;;;4947811;28;20475;-69
2021/09/09 07:29:50;;;;;;;8.68;6.30;;;16.20;90.10;;;;;;4943781;28;20035;-69
2021/09/09 07:32:16;;;;;;;9.35;6.20;;;16.20;90.00;;;;;;4953350;28;20035;-68
2021/09/09 07:34:41;;;;;;;8.20;5.75;;;16.40;89.80;;;;;;4963259;28;20027;-69
2021/09/09 07:37:07;;;;;;;9.13;6.32;;;16.60;89.90;;;;;;4947561;28;20035;-69
2021/09/09 07:39:33;;;;;;;8.15;5.72;;;16.80;90.00;;;;;;4949753;28;20031;-69
2021/09/09 07:41:58;;;;;;;8.32;5.85;;;17.00;88.90;;;;;;4949476;28;20035;-69
2021/09/09 07:44:24;;;;;;;8.48;5.95;;;17.20;86.50;;;;;;4949919;28;20502;-69
2021/09/09 07:46:50;;;;;;;8.40;5.53;;;17.40;86.40;;;;;;4946830;28;20035;-69
2021/09/09 07:49:16;;;;;;;7.50;5.60;;;17.70;84.10;;;;;;4945332;28;20102;-69
2021/09/09 07:51:42;;;;;;;11.43;5.95;;;17.90;83.50;;;;;;4961972;28;20035;-69
2021/09/09 07:54:08;;;;;;;8.73;5.50;;;18.00;81.90;;;;;;4951851;28;20037;-69
2021/09/09 07:56:34;;;;;;;9.20;5.45;;;18.10;81.80;;;;;;4946093;29;20023;-69
2021/09/09 07:58:59;;;;;;;8.10;5.47;;;18.20;81.50;;;;;;4949750;28;20113;-69
2021/09/09 08:01:25;;;;;;;8.52;5.38;;;18.30;81.60;;;;;;4966278;28;20055;-69
2021/09/09 08:03:51;;;;;;;7.53;5.32;;;18.40;81.40;;;;;;4947129;29;20477;-68
2021/09/09 08:06:17;;;;;;;8.13;5.22;;;18.60;80.60;;;;;;4942659;28;20113;-69
2021/09/09 08:08:43;;;;;;;11.63;5.97;;;18.60;80.00;;;;;;4945988;28;20027;-68
2021/09/09 08:11:09;;;;;;;7.97;5.90;;;18.60;79.70;;;;;;4949483;28;20059;-69
2021/09/09 08:13:35;;;;;;;7.82;5.63;;;18.70;79.80;;;;;;4947019;28;20046;-69
2021/09/09 08:16:02;;;;;;;7.88;5.65;;;18.70;80.00;;;;;;4947280;28;20031;-69
2021/09/09 08:18:27;;;;;;;7.30;5.93;;;18.80;80.10;;;;;;4947436;28;20298;-69
2021/09/09 08:20:54;;;;;;;7.75;5.75;;;18.90;79.80;;;;;;4948623;28;20078;-69
2021/09/09 08:23:21;;;;;;;8.05;5.50;;;19.10;80.10;;;;;;4949359;28;20039;-69
2021/09/09 08:25:47;;;;;;;7.27;5.13;;;19.20;80.50;;;;;;4964351;28;22283;-69
2021/09/09 08:28:13;;;;;;;7.53;5.40;;;19.30;80.00;;;;;;4946656;28;20067;-69
2021/09/09 08:30:39;;;;;;;6.93;5.40;;;19.50;79.30;;;;;;4950429;28;20027;-69
2021/09/09 08:33:04;;;;;;;6.55;5.28;;;19.60;79.50;;;;;;4947415;28;20038;-70
2021/09/09 08:35:30;;;;;;;10.05;5.65;;;19.70;79.30;;;;;;4944277;28;20039;-69
2021/09/09 08:37:57;;;;;;;9.80;6.32;;;19.80;78.90;;;;;;4946684;28;20019;-69
2021/09/09 08:40:23;;;;;;;8.10;5.78;;;19.90;80.50;;;;;;4954739;28;20027;-69
2021/09/09 08:42:48;;;;;;;7.63;5.63;;;20.00;78.80;;;;;;4951481;28;20038;-69
2021/09/09 08:45:16;;;;;;;8.38;5.80;;;20.00;79.60;;;;;;4948436;28;20035;-69
2021/09/09 08:47:42;;;;;;;7.57;5.70;;;20.00;80.10;;;;;;4951103;28;20584;-69
2021/09/09 08:50:09;;;;;;;6.75;5.68;;;20.00;79.80;;;;;;4949534;28;20056;-69
2021/09/09 08:52:36;;;;;;;6.93;5.65;;;20.10;80.10;;;;;;4951120;28;20031;-69
2021/09/09 08:55:03;;;;;;;7.00;5.10;;;20.10;79.70;;;;;;4953118;28;20026;-69
2021/09/09 08:57:32;;;;;;;9.43;6.32;;;20.10;78.50;;;;;;4945823;28;20027;-69
2021/09/09 08:59:58;;;;;;;7.78;5.15;;;20.10;77.60;;;;;;4951623;28;20020;-69
2021/09/09 09:02:24;;;;;;;9.00;5.38;;;20.20;77.90;;;;;;4955318;28;20026;-69
2021/09/09 09:05:06;;;;;;;6.85;5.07;;;20.30;78.20;;;;;;4949134;28;20039;-69
2021/09/09 09:07:33;;;;;;;7.80;4.93;;;20.30;78.20;;;;;;4952000;28;20031;-69
2021/09/09 09:10:07;;;;;;;7.95;4.90;;;20.30;78.20;;;;;;4951057;28;20019;-70
2021/09/09 09:12:43;;;;;;;6.03;4.82;;;20.30;77.80;;;;;;4949145;28;20031;-69
2021/09/09 09:15:17;;;;;;;8.18;5.57;;;20.30;77.80;;;;;;4951652;28;20074;-69
2021/09/09 09:17:53;;;;;;;5.63;5.00;;;20.30;78.30;;;;;;4952625;28;20031;-69
2021/09/09 09:20:19;;;;;;;7.65;6.18;;;20.30;78.70;;;;;;4948288;28;20026;-69
2021/09/09 09:22:45;;;;;;;7.50;5.47;;;20.30;78.30;;;;;;4954773;28;20608;-68
2021/09/09 09:25:11;;;;;;;5.70;4.88;;;20.20;77.50;;;;;;4954481;28;20142;-68
2021/09/09 09:27:45;;;;;;;5.55;4.93;;;20.10;76.60;;;;;;4949780;28;20119;-68
2021/09/09 09:30:12;;;;;;;5.35;4.03;;;20.10;75.80;;;;;;4952442;29;20035;-68
2021/09/09 09:32:51;;;;;;;5.80;4.40;;;20.20;72.90;;;;;;4949896;28;20082;-68
2021/09/09 09:35:21;;;;;;;5.35;4.13;;;20.30;73.50;;;;;;4951777;29;20011;-68
2021/09/09 09:37:57;;;;;;;4.65;4.20;;;20.20;72.40;;;;;;4948796;28;20377;-68
2021/09/09 09:40:31;;;;;;;5.70;4.60;;;20.20;72.60;;;;;;4939947;29;20023;-68
2021/09/09 09:42:59;;;;;;;6.68;5.18;;;20.30;73.10;;;;;;4951214;29;20055;-68
2021/09/09 09:45:25;;;;;;;6.55;4.63;;;20.50;72.40;;;;;;4947249;28;20031;-69
2021/09/09 09:47:50;;;;;;;6.15;4.93;;;20.70;74.10;;;;;;4948186;28;20034;-68
2021/09/09 09:50:19;;;;;;;7.00;4.85;;;20.80;73.10;;;;;;4968033;28;20051;-69
2021/09/09 09:52:46;;;;;;;6.65;4.85;;;20.90;71.70;;;;;;4949880;28;20035;-68
2021/09/09 09:55:12;;;;;;;5.28;4.35;;;21.00;70.20;;;;;;4950081;28;20448;-68
2021/09/09 09:58:10;;;;;;;8.05;4.90;;;21.00;71.70;;;;;;4952644;28;20027;-68
2021/09/09 10:00:36;;;;;;;6.22;4.85;;;21.20;72.10;;;;;;4935026;28;20028;-68
2021/09/09 10:03:02;;;;;;;7.90;5.18;;;21.40;72.60;;;;;;4955218;28;20106;-68
2021/09/09 10:05:35;;;;;;;6.22;4.60;;;21.50;70.80;;;;;;4955970;28;20443;-69
2021/09/09 10:08:02;;;;;;;6.70;4.88;;;21.50;71.50;;;;;;4958530;28;20452;-68
2021/09/09 10:10:28;;;;;;;7.70;4.93;;;21.50;70.40;;;;;;4948599;29;20070;-68
2021/09/09 10:12:54;;;;;;;5.03;4.53;;;21.60;69.30;;;;;;4952849;28;20417;-68
2021/09/09 10:15:21;;;;;;;6.75;4.30;;;21.60;68.50;;;;;;4964035;28;20138;-68
2021/09/09 10:17:49;;;;;;;5.93;4.78;;;21.50;69.50;;;;;;4950758;28;20346;-67
2021/09/09 10:20:28;;;;;;;;;;;21.70;69.80;;;;;;4949612;28;20495;-68
2021/09/09 10:23:11;;;;;;;6.60;4.15;;;21.70;69.10;;;;;;4959593;28;19969;-68
2021/09/09 10:25:41;;;;;;;7.03;4.72;;;21.80;69.40;;;;;;4948736;28;20033;-68
2021/09/09 10:31:04;;;;;;;6.18;4.68;;;22.10;67.60;;;;;;4952932;28;20089;-68
2021/09/09 10:33:30;;;;;;;7.95;4.57;;;22.20;68.70;;;;;;4949644;28;20151;-68
2021/09/09 10:35:56;;;;;;;6.50;4.63;;;22.30;68.30;;;;;;4952760;29;20023;-68
2021/09/09 10:38:23;;;;;;;5.32;4.50;;;22.20;67.10;;;;;;4952871;29;20069;-68
2021/09/09 10:40:49;;;;;;;5.65;4.90;;;22.20;67.30;;;;;;4947721;28;20063;-68
2021/09/09 10:43:45;;;;;;;5.30;4.28;;;22.30;67.10;;;;;;4951034;28;20085;-68
2021/09/09 10:46:11;;;;;;;4.15;3.72;;;22.00;66.70;;;;;;4951755;28;20511;-69
2021/09/09 10:48:37;;;;;;;4.38;3.90;;;21.80;67.30;;;;;;4940328;28;20066;-67
2021/09/09 10:51:05;;;;;;;5.00;4.28;;;21.90;67.00;;;;;;4940088;29;20035;-67
2021/09/09 10:53:34;;;;;;;6.85;4.32;;;21.80;67.60;;;;;;4951883;29;20082;-68
2021/09/09 10:56:28;;;;;;;5.93;4.07;;;21.90;67.40;;;;;;4949230;28;20031;-68
2021/09/09 10:59:19;;;;;;;5.72;4.07;;;22.10;67.30;;;;;;4952495;28;20047;-68
2021/09/09 11:01:45;;;;;;;5.88;3.67;;;22.20;66.50;;;;;;4965331;28;20040;-68
2021/09/09 11:04:32;;;;;;;4.53;3.90;;;22.10;66.10;;;;;;4949882;28;20393;-68
2021/09/09 11:06:58;;;;;;;5.32;4.20;;;22.30;66.00;;;;;;4950884;28;20023;-68
2021/09/09 11:09:25;;;;;;;6.90;4.25;;;22.30;65.20;;;;;;4952925;28;20027;-68
2021/09/09 11:12:00;;;;;;;5.05;4.18;;;22.30;65.30;;;;;;4947080;28;20031;-68
2021/09/09 11:14:25;;;;;;;5.07;3.85;;;22.30;65.60;;;;;;4965987;28;20035;-68
2021/09/09 11:16:51;;;;;;;6.00;4.05;;;22.40;66.20;;;;;;4949583;28;20381;-70
2021/09/09 11:19:21;;;;;;;6.50;4.25;;;22.40;64.90;;;;;;4952213;29;20113;-68
2021/09/09 11:21:47;;;;;;;4.18;3.78;;;22.40;65.10;;;;;;4948183;29;20037;-68
2021/09/09 11:24:14;;;;;;;4.20;3.80;;;22.40;64.30;;;;;;4938196;28;20055;-67
2021/09/09 11:26:41;;;;;;;8.00;4.33;;;22.40;64.50;;;;;;4948524;28;20046;-68
2021/09/09 11:29:08;;;;;;;6.82;4.07;;;22.30;64.10;;;;;;4953396;28;20333;-68
2021/09/09 11:31:48;;;;;;;6.15;4.35;;;22.30;64.90;;;;;;4948207;28;20070;-68
2021/09/09 11:34:20;;;;;;;8.07;4.45;;;22.50;65.20;;;;;;4952093;28;20031;-69
2021/09/09 11:36:46;;;;;;;13.15;4.40;;;22.40;63.80;;;;;;4951230;28;20074;-68
2021/09/09 11:39:16;;;;;;;6.70;4.40;;;22.30;63.70;;;;;;4947023;28;20030;-68
2021/09/09 11:41:43;;;;;;;5.65;4.15;;;22.10;65.00;;;;;;4952409;28;20055;-69
2021/09/09 11:44:22;;;;;;;8.47;4.87;;;22.00;64.50;;;;;;4948907;28;20031;-69
2021/09/09 11:46:50;;;;;;;6.20;4.35;;;22.10;64.90;;;;;;4953295;28;20027;-68
2021/09/09 11:49:18;;;;;;;5.47;4.53;;;22.20;65.20;;;;;;4959519;28;20027;-68
2021/09/09 11:51:52;;;;;;;4.93;4.38;;;22.30;65.90;;;;;;4966153;28;20031;-68
2021/09/09 11:54:20;;;;;;;5.90;4.47;;;22.30;65.60;;;;;;4951425;28;20031;-68
2021/09/09 11:56:47;;;;;;;5.18;3.92;;;22.50;66.20;;;;;;4943698;28;20027;-67
2021/09/09 11:59:18;;;;;;;5.25;4.50;;;22.60;66.00;;;;;;4953554;28;20039;-67
2021/09/09 12:01:52;;;;;;;7.55;4.35;;;22.60;65.40;;;;;;4950909;28;20650;-68
2021/09/09 12:04:20;;;;;;;6.50;4.85;;;22.70;65.90;;;;;;4946804;28;20058;-68
2021/09/09 12:06:47;;;;;;;7.13;4.85;;;22.70;64.50;;;;;;4948349;29;20027;-68
2021/09/09 12:09:27;;;;;;;6.67;4.57;;;22.70;65.70;;;;;;4950587;28;20452;-69
2021/09/09 12:12:10;;;;;;;7.82;4.40;;;22.60;65.10;;;;;;4953300;28;20028;-68
2021/09/09 12:14:38;;;;;;;5.50;4.60;;;22.70;65.80;;;;;;4967029;28;20034;-68
2021/09/09 12:17:06;;;;;;;;;;;22.70;65.50;;;;;;4954042;29;20514;-68
2021/09/09 12:19:59;;;;;;;6.47;4.18;;;22.60;65.00;;;;;;4956489;29;20378;-69
2021/09/09 12:22:54;;;;;;;4.80;4.28;;;22.70;65.40;;;;;;4971144;28;20031;-69
2021/09/09 12:25:24;;;;;;;5.72;4.38;;;22.70;65.60;;;;;;4965354;28;20053;-68
2021/09/09 12:28:02;;;;;;;5.65;4.85;;;22.70;65.80;;;;;;4956674;29;20031;-68
2021/09/09 12:30:51;;;;;;;7.35;5.10;;;22.70;66.10;;;;;;4947396;28;20030;-68
2021/09/09 12:33:23;;;;;;;7.20;5.00;;;22.70;65.60;;;;;;4951847;28;20033;-68
2021/09/09 12:36:16;;;;;;;6.05;4.60;;;22.70;65.10;;;;;;4948963;28;20030;-68
2021/09/09 12:38:50;;;;;;;5.63;4.68;;;22.80;66.00;;;;;;4956479;28;20065;-68
2021/09/09 12:41:23;;;;;;;7.55;4.85;;;22.80;65.70;;;;;;4945205;29;20031;-67
2021/09/09 12:43:51;;;;;;;6.57;4.03;;;22.80;65.20;;;;;;4950642;29;20070;-68
2021/09/09 12:46:34;;;;;;;7.05;4.80;;;22.70;65.80;;;;;;4946752;28;20032;-68
2021/09/09 12:49:03;;;;;;;5.68;4.45;;;22.60;65.30;;;;;;4946076;28;20035;-68
2021/09/09 12:51:39;;;;;;;6.07;4.93;;;22.60;67.60;;;;;;4956516;28;20055;-68
2021/09/09 12:54:06;;;;;;;6.95;4.53;;;22.80;67.70;;;;;;4953055;28;20106;-68